Time;durP1;ratioP1;P1;durP2;ratioP2;P2;SDS_P1;SDS_P2;PMS_P1;PMS_P2;Temp;Humidity;BMP_temperature;BMP_pressure;BME280_temperature;BME280_humidity;BME280_pressure;Samples;Min_cycle;Max_cycle;Signal;HPM_P1;HPM_P2
2022/01/31 00:05:17;;;;;;;11.30;2.60;;;;;;;2.19;63.41;98327.66;219667;1277;22797;-71
2022/01/31 00:10:35;;;;;;;15.00;3.30;;;;;;;2.18;63.40;98326.17;219814;1274;23480;-71
2022/01/31 00:15:43;;;;;;;7.20;1.80;;;;;;;2.13;63.76;98325.26;219954;1275;22550;-71
2022/01/31 00:20:58;;;;;;;;;;;;;;;;;;;;;
2022/01/31 00:26:33;;;;;;;8.50;2.10;;;;;;;2.04;64.20;98327.77;220034;1274;22704;-72
2022/01/31 00:31:43;;;;;;;10.20;2.40;;;;;;;2.00;64.12;98326.77;220050;1274;22919;-71
2022/01/31 00:37:02;;;;;;;11.50;2.40;;;;;;;1.95;64.22;98323.30;220548;1274;24272;-70
2022/01/31 00:42:30;;;;;;;12.30;2.50;;;;;;;1.87;64.07;98327.95;220079;1274;22541;-70
2022/01/31 00:47:37;;;;;;;8.10;1.90;;;;;;;1.79;64.30;98337.08;219892;1275;22825;-71
2022/01/31 00:52:50;;;;;;;10.30;1.80;;;;;;;1.73;64.32;98332.39;220005;1276;22600;-72
2022/01/31 00:58:11;;;;;;;9.10;2.00;;;;;;;1.71;64.28;98341.13;220073;1274;22721;-72
2022/01/31 01:03:42;;;;;;;5.80;1.60;;;;;;;1.70;64.40;98346.14;220055;1275;24259;-71
2022/01/31 01:08:48;;;;;;;7.50;1.80;;;;;;;1.71;64.15;98342.87;219851;1275;25324;-72
2022/01/31 01:14:11;;;;;;;10.40;2.20;;;;;;;1.72;63.90;98337.81;220132;1275;25261;-72
2022/01/31 01:19:32;;;;;;;6.90;1.60;;;;;;;1.69;63.99;98332.19;219872;1277;25515;-71
2022/01/31 01:25:05;;;;;;;10.50;1.90;;;;;;;1.67;63.92;98330.04;219969;1274;22738;-71
2022/01/31 01:36:38;;;;;;;;;;;;;;;;;;;;;
2022/01/31 01:42:16;;;;;;;;;;;;;;;;;;;;;
2022/01/31 01:47:43;;;;;;;9.90;2.20;;;;;;;1.61;63.77;98276.34;219994;1274;24251;-71
2022/01/31 01:52:51;;;;;;;7.20;1.60;;;;;;;1.59;63.49;98261.73;219880;1274;25387;-72
2022/01/31 01:58:15;;;;;;;7.80;1.70;;;;;;;1.55;63.59;98247.60;220084;1275;25585;-71
2022/01/31 02:04:12;;;;;;;11.50;2.20;;;;;;;1.51;63.53;98235.70;219928;1274;23836;-70
2022/01/31 02:10:14;;;;;;;12.40;1.70;;;;;;;1.47;63.35;98225.41;219910;1274;22546;-70
2022/01/31 02:16:00;;;;;;;6.40;1.40;;;;;;;1.41;63.44;98215.51;219912;1274;22747;-71
2022/01/31 02:21:18;;;;;;;6.80;2.00;;;;;;;1.33;63.76;98208.67;220027;1274;26428;-71
2022/01/31 02:26:48;;;;;;;8.10;2.10;;;;;;;1.24;63.85;98199.33;219976;1274;22745;-72
2022/01/31 02:32:15;;;;;;;8.90;1.70;;;;;;;1.14;64.13;98196.52;220060;1274;25656;-71
2022/01/31 02:37:36;;;;;;;10.50;1.70;;;;;;;1.08;64.34;98205.89;219803;1274;23289;-72
2022/01/31 02:43:10;;;;;;;7.90;1.70;;;;;;;1.02;64.46;98211.70;219678;1274;22593;-70
2022/01/31 02:48:22;;;;;;;7.20;1.90;;;;;;;1.01;64.96;98208.40;219927;1274;22544;-71
2022/01/31 02:53:33;;;;;;;6.80;1.50;;;;;;;1.01;64.84;98194.32;219927;1274;22558;-71
2022/01/31 02:59:48;;;;;;;6.30;1.40;;;;;;;1.04;64.91;98195.48;220214;1274;22551;-72
2022/01/31 03:05:05;;;;;;;5.70;2.00;;;;;;;1.03;64.61;98177.42;220128;1274;22625;-71
2022/01/31 03:10:31;;;;;;;14.30;2.00;;;;;;;0.98;64.64;98162.62;219895;1274;26291;-71
2022/01/31 03:15:58;;;;;;;;;;;;;;;;;;;;;
2022/01/31 03:22:26;;;;;;;10.90;1.90;;;;;;;0.76;65.40;98142.77;219916;1274;24358;-71
2022/01/31 03:27:39;;;;;;;9.40;2.00;;;;;;;0.66;65.59;98142.98;220017;1274;24284;-71
2022/01/31 03:33:22;;;;;;;7.40;1.80;;;;;;;0.59;65.76;98118.77;220114;1274;24355;-72
2022/01/31 03:39:07;;;;;;;6.70;1.90;;;;;;;0.53;66.32;98105.39;220272;1274;23029;-71
2022/01/31 03:44:19;;;;;;;14.30;2.50;;;;;;;0.49;66.76;98098.85;219931;1274;23738;-72
2022/01/31 03:49:25;;;;;;;7.80;2.10;;;;;;;0.46;67.11;98087.80;218837;1277;22557;-71
2022/01/31 03:55:15;;;;;;;7.50;1.50;;;;;;;0.43;67.34;98084.48;219657;1277;25421;-71
2022/01/31 04:00:45;;;;;;;7.80;1.80;;;;;;;0.39;67.34;98081.19;219814;1277;25400;-71
2022/01/31 04:05:50;;;;;;;11.00;2.20;;;;;;;0.38;67.69;98071.21;219920;1274;22617;-71
2022/01/31 04:11:25;;;;;;;11.10;2.60;;;;;;;0.35;67.70;98063.21;220096;1274;22671;-71
2022/01/31 04:22:00;;;;;;;7.10;1.60;;;;;;;0.30;68.19;98045.73;220201;1274;25429;-71
2022/01/31 04:27:06;;;;;;;6.20;1.80;;;;;;;0.26;68.45;98039.14;220233;1274;24252;-72
2022/01/31 04:32:14;;;;;;;6.80;2.00;;;;;;;0.22;68.32;98041.50;219913;1274;22583;-70
2022/01/31 04:37:32;;;;;;;11.80;2.20;;;;;;;0.18;68.65;98036.48;220003;1274;25276;-72
2022/01/31 04:42:39;;;;;;;7.80;2.00;;;;;;;0.15;69.02;98028.70;220076;1274;22701;-71
2022/01/31 04:48:23;;;;;;;;;;;;;;;;;;;;;
2022/01/31 04:59:18;;;;;;;8.10;2.10;;;;;;;0.03;69.25;97991.66;219125;1274;24291;-71
2022/01/31 05:04:38;;;;;;;11.70;2.40;;;;;;;-0.03;69.34;97982.20;220053;1274;22565;-71
2022/01/31 05:10:02;;;;;;;9.30;1.50;;;;;;;-0.10;69.31;97977.47;219646;1276;22585;-71
2022/01/31 05:16:15;;;;;;;10.80;2.50;;;;;;;-0.16;69.35;97971.92;220128;1274;24458;-72
2022/01/31 05:22:35;;;;;;;;;;;;;;;;;;;;;
2022/01/31 05:28:23;;;;;;;11.20;3.20;;;;;;;-0.37;70.24;97954.75;220301;1274;26239;-70
2022/01/31 05:33:28;;;;;;;12.30;2.70;;;;;;;-0.40;70.61;97964.11;220089;1274;25450;-71
2022/01/31 05:38:42;;;;;;;11.90;2.70;;;;;;;-0.38;70.68;97946.72;220004;1274;22546;-70
2022/01/31 05:43:47;;;;;;;12.30;2.40;;;;;;;-0.34;70.81;97938.64;220026;1274;25666;-71
2022/01/31 05:48:51;;;;;;;10.70;2.60;;;;;;;-0.27;70.61;97938.85;220245;1274;25359;-70
2022/01/31 05:53:53;;;;;;;9.70;2.30;;;;;;;-0.20;70.87;97951.55;219934;1274;25312;-71
2022/01/31 05:58:58;;;;;;;8.70;2.70;;;;;;;-0.12;70.83;97948.56;220121;1274;22572;-72
2022/01/31 06:04:06;;;;;;;11.70;3.30;;;;;;;-0.04;70.80;97945.85;219965;1274;25767;-70
2022/01/31 06:09:17;;;;;;;10.30;2.80;;;;;;;0.04;70.75;97936.96;219721;1277;22541;-71
2022/01/31 06:14:56;;;;;;;12.40;3.70;;;;;;;0.09;70.63;97930.10;220031;1274;22545;-71
2022/01/31 06:20:02;;;;;;;11.30;3.30;;;;;;;0.13;70.59;97921.94;219926;1274;26595;-72
2022/01/31 06:25:05;;;;;;;9.80;3.20;;;;;;;0.18;70.83;97916.52;220059;1274;26469;-72
2022/01/31 06:30:31;;;;;;;14.50;3.30;;;;;;;0.19;70.65;97905.48;220051;1274;25569;-70
2022/01/31 06:35:37;;;;;;;14.10;4.80;;;;;;;0.20;70.43;97898.16;220331;1274;24124;-72
2022/01/31 06:41:22;;;;;;;;;;;;;;;0.24;70.55;97898.07;220289;1274;26379;-70
2022/01/31 06:46:44;;;;;;;9.70;3.30;;;;;;;0.29;70.71;97898.23;220566;1274;22569;-71
2022/01/31 06:52:06;;;;;;;15.30;5.30;;;;;;;0.34;70.72;97883.45;220363;1274;22903;-71
2022/01/31 06:57:21;;;;;;;15.50;5.00;;;;;;;0.40;70.86;97875.20;220305;1274;22556;-70
2022/01/31 07:02:28;;;;;;;14.20;4.60;;;;;;;0.49;70.75;97871.36;220380;1274;25488;-69
2022/01/31 07:07:39;;;;;;;17.10;6.00;;;;;;;0.57;70.41;97863.64;218734;1274;25373;-69
2022/01/31 07:12:53;;;;;;;17.00;4.60;;;;;;;0.63;70.66;97850.66;218265;1274;22603;-70
2022/01/31 07:29:25;;;;;;;10.70;4.10;;;;;;;0.75;70.00;97823.59;220328;1274;22580;-69
2022/01/31 07:34:42;;;;;;;18.20;4.00;;;;;;;0.78;70.12;97824.31;220504;1274;22564;-70
2022/01/31 07:40:22;;;;;;;12.50;3.20;;;;;;;0.85;70.06;97811.77;218916;1274;25367;-71
2022/01/31 07:46:29;;;;;;;10.50;4.40;;;;;;;0.92;69.84;97804.13;218417;1274;22964;-69
2022/01/31 07:51:44;;;;;;;16.60;5.30;;;;;;;0.96;69.83;97792.04;218639;1277;22622;-70
2022/01/31 07:56:58;;;;;;;18.40;6.10;;;;;;;0.99;69.53;97789.48;218647;1274;22548;-69
2022/01/31 08:02:20;;;;;;;17.00;6.20;;;;;;;1.00;69.30;97781.59;218508;1274;22581;-70
2022/01/31 08:07:33;;;;;;;15.70;5.20;;;;;;;1.04;69.66;97774.50;220313;1274;22601;-69
2022/01/31 08:12:48;;;;;;;17.30;5.30;;;;;;;1.11;69.42;97757.84;218714;1274;24316;-70
2022/01/31 08:17:55;;;;;;;13.70;4.70;;;;;;;1.18;69.50;97749.14;218763;1274;24305;-69
2022/01/31 08:23:26;;;;;;;15.80;4.80;;;;;;;1.27;69.51;97746.72;218234;1274;360890;-69
2022/01/31 08:28:45;;;;;;;13.10;4.70;;;;;;;1.36;69.60;97743.77;218652;1274;24390;-69
2022/01/31 08:38:59;;;;;;;19.60;4.70;;;;;;;1.46;69.57;97719.77;218434;1274;24349;-70
2022/01/31 08:44:30;;;;;;;16.10;5.00;;;;;;;1.53;69.55;97705.83;218520;1274;22510;-68
2022/01/31 08:49:36;;;;;;;12.70;4.40;;;;;;;1.59;69.31;97693.08;218652;1274;24752;-67
2022/01/31 08:54:40;;;;;;;13.40;4.20;;;;;;;1.62;69.05;97680.73;218484;1274;24283;-67
2022/01/31 08:59:54;;;;;;;14.20;4.70;;;;;;;1.69;69.11;97674.48;218821;1274;22583;-68
2022/01/31 09:05:05;;;;;;;18.20;5.40;;;;;;;1.73;68.77;97664.11;218411;1274;22559;-71
2022/01/31 09:10:18;;;;;;;20.30;5.20;;;;;;;1.75;68.74;97657.14;218471;1275;25271;-69
2022/01/31 09:21:23;;;;;;;16.30;4.50;;;;;;;1.96;68.96;97653.47;220463;1274;22568;-70
2022/01/31 09:26:28;;;;;;;15.70;4.90;;;;;;;2.02;68.22;97654.02;220188;1274;22690;-69
2022/01/31 09:32:07;;;;;;;17.00;4.20;;;;;;;2.03;68.25;97654.39;218622;1274;24292;-69
2022/01/31 09:37:10;;;;;;;18.20;4.90;;;;;;;2.07;68.27;97644.48;218335;1274;26392;-69
2022/01/31 09:42:25;;;;;;;13.80;4.50;;;;;;;2.09;67.67;97640.61;218596;1274;25473;-72
2022/01/31 09:53:06;;;;;;;17.90;4.00;;;;;;;2.01;67.42;97617.56;220339;1274;22803;-70
2022/01/31 09:58:14;;;;;;;18.30;4.90;;;;;;;1.99;67.49;97613.38;220443;1274;24185;-69
2022/01/31 10:03:17;;;;;;;19.30;6.10;;;;;;;2.00;67.54;97597.65;218373;1274;25385;-68
2022/01/31 10:08:20;;;;;;;16.80;4.90;;;;;;;2.02;67.75;97592.36;218408;1274;26560;-69
2022/01/31 10:19:04;;;;;;;19.90;5.20;;;;;;;2.07;67.60;97581.23;218547;1274;23064;-69
2022/01/31 10:24:20;;;;;;;19.40;5.50;;;;;;;2.11;67.68;97571.58;218791;1274;22705;-69
2022/01/31 10:29:28;;;;;;;16.30;5.30;;;;;;;2.13;67.33;97577.01;218478;1274;24804;-70
2022/01/31 10:34:54;;;;;;;;;;;;;;;2.10;67.23;97574.79;220393;1274;22686;-69
2022/01/31 10:46:31;;;;;;;19.10;6.50;;;;;;;2.16;67.36;97559.94;220222;1274;25430;-70
2022/01/31 10:52:04;;;;;;;17.20;3.90;;;;;;;2.28;66.87;97558.73;220412;1274;22557;-70
2022/01/31 10:57:21;;;;;;;20.00;5.50;;;;;;;2.35;66.54;97549.59;220248;1274;22642;-70
2022/01/31 11:02:49;;;;;;;16.60;4.30;;;;;;;2.38;66.20;97540.77;220211;1274;22720;-69
2022/01/31 11:08:14;;;;;;;20.70;4.20;;;;;;;2.48;66.62;97535.73;219136;1274;24243;-69
2022/01/31 11:13:22;;;;;;;12.30;4.10;;;;;;;2.57;65.75;97526.42;218653;1274;22677;-68
2022/01/31 11:18:32;;;;;;;19.90;5.50;;;;;;;2.58;65.20;97522.56;218590;1274;24291;-69
2022/01/31 11:23:39;;;;;;;21.90;5.10;;;;;;;2.62;65.74;97523.61;218503;1274;25428;-69
2022/01/31 11:28:46;;;;;;;14.10;3.90;;;;;;;2.71;65.86;97506.30;218949;1274;25339;-68
2022/01/31 11:33:52;;;;;;;16.30;4.20;;;;;;;2.77;65.49;97499.36;219879;1274;22560;-69
2022/01/31 11:39:04;;;;;;;14.30;3.50;;;;;;;2.74;64.34;97493.34;218807;1275;25383;-69
2022/01/31 11:44:59;;;;;;;12.80;3.70;;;;;;;2.68;63.88;97482.87;218488;1274;26933;-70
2022/01/31 11:50:19;;;;;;;15.90;3.00;;;;;;;2.61;63.85;97475.44;218519;1274;24363;-70
2022/01/31 11:55:41;;;;;;;20.10;4.40;;;;;;;2.60;63.51;97471.79;219945;1275;22849;-70
2022/01/31 12:00:48;;;;;;;13.10;3.50;;;;;;;2.63;64.13;97468.39;220442;1274;22631;-69
2022/01/31 12:05:51;;;;;;;13.40;3.30;;;;;;;2.80;64.23;97456.40;218870;1274;22584;-70
2022/01/31 12:11:14;;;;;;;19.20;4.30;;;;;;;2.98;64.00;97444.64;220357;1274;24696;-70
2022/01/31 12:22:47;;;;;;;14.00;3.90;;;;;;;3.20;63.88;97423.73;219011;1274;22709;-71
2022/01/31 12:28:39;;;;;;;16.60;4.10;;;;;;;3.31;63.93;97416.58;220402;1274;22582;-71
2022/01/31 12:33:42;;;;;;;17.30;4.30;;;;;;;3.31;62.53;97407.33;220348;1274;22625;-73
2022/01/31 12:38:47;;;;;;;14.70;4.00;;;;;;;3.19;62.30;97411.98;220538;1274;26415;-70
2022/01/31 12:44:28;;;;;;;17.30;4.10;;;;;;;3.08;62.50;97410.25;219941;1277;25276;-70
2022/01/31 12:49:35;;;;;;;17.30;3.70;;;;;;;3.02;62.80;97406.95;220305;1274;22767;-70
2022/01/31 12:54:54;;;;;;;;;;;;;;;;;;;;;
2022/01/31 13:00:08;;;;;;;17.70;4.60;;;;;;;3.08;62.75;97398.93;218915;1274;22550;-70
2022/01/31 13:05:28;;;;;;;12.00;4.20;;;;;;;3.15;63.12;97391.01;219977;1274;22714;-70
2022/01/31 13:10:51;;;;;;;9.60;3.50;;;;;;;3.19;62.55;97389.45;220154;1274;22687;-70
2022/01/31 13:16:21;;;;;;;;;;;;;;;3.20;62.31;97390.91;220075;1274;22544;-70
2022/01/31 13:21:33;;;;;;;14.40;4.30;;;;;;;3.15;61.89;97396.20;220133;1274;22584;-71
2022/01/31 13:26:58;;;;;;;13.90;4.40;;;;;;;3.02;62.06;97385.79;220075;1274;22569;-70
2022/01/31 13:32:28;;;;;;;16.00;4.30;;;;;;;2.93;62.13;97375.35;220197;1274;22541;-70
2022/01/31 13:38:01;;;;;;;14.10;4.00;;;;;;;2.90;62.16;97365.95;220276;1274;26515;-70
2022/01/31 13:43:29;;;;;;;17.10;4.50;;;;;;;2.98;62.37;97352.10;218660;1276;25555;-70
2022/01/31 13:49:08;;;;;;;12.70;3.90;;;;;;;3.08;62.66;97351.93;218576;1276;25376;-69
2022/01/31 13:54:25;;;;;;;13.80;3.60;;;;;;;3.22;62.85;97350.73;218594;1276;26070;-71
2022/01/31 13:59:33;;;;;;;12.20;3.50;;;;;;;3.28;62.17;97349.58;218641;1276;25573;-69
2022/01/31 14:04:43;;;;;;;12.80;3.40;;;;;;;3.22;62.01;97336.98;218838;1276;25502;-70
2022/01/31 14:10:08;;;;;;;12.50;3.70;;;;;;;3.18;62.33;97342.45;220051;1276;23320;-70
2022/01/31 14:15:22;;;;;;;16.80;4.30;;;;;;;3.17;62.53;97335.36;219901;1275;22642;-69
2022/01/31 14:21:12;;;;;;;11.80;3.80;;;;;;;3.11;61.85;97329.48;218638;1277;22601;-70
2022/01/31 14:26:18;;;;;;;13.40;4.30;;;;;;;3.01;62.02;97333.83;218574;1276;23758;-69
2022/01/31 14:31:34;;;;;;;18.60;4.70;;;;;;;2.96;62.34;97334.49;218700;1275;22721;-69
2022/01/31 14:37:13;;;;;;;15.20;4.20;;;;;;;2.90;62.49;97327.48;219067;1274;24155;-69
2022/01/31 14:42:49;;;;;;;13.80;4.30;;;;;;;2.86;62.60;97320.53;218346;1277;24663;-69
2022/01/31 14:48:15;;;;;;;14.50;4.70;;;;;;;2.82;63.01;97319.23;218391;1276;22646;-69
2022/01/31 14:54:14;;;;;;;17.80;5.30;;;;;;;2.73;62.77;97330.17;218560;1277;22573;-70
2022/01/31 14:59:20;;;;;;;21.20;8.90;;;;;;;2.65;62.93;97336.71;218191;1275;25875;-69
2022/01/31 15:04:25;;;;;;;18.60;5.20;;;;;;;2.60;63.15;97337.80;218579;1274;22558;-69
2022/01/31 15:10:13;;;;;;;22.70;5.20;;;;;;;2.48;63.04;97336.68;218569;1275;22600;-69
2022/01/31 15:15:19;;;;;;;17.80;4.50;;;;;;;2.34;63.32;97344.02;218564;1277;25490;-69
2022/01/31 15:20:26;;;;;;;25.00;6.50;;;;;;;2.27;63.56;97342.04;218523;1275;22569;-70
2022/01/31 15:25:46;;;;;;;21.70;5.80;;;;;;;2.18;63.78;97345.23;218576;1274;22707;-69
2022/01/31 15:30:59;;;;;;;21.10;6.10;;;;;;;2.10;64.04;97345.32;218687;1274;24284;-70
2022/01/31 15:36:38;;;;;;;22.20;8.00;;;;;;;2.00;64.24;97344.85;219155;1275;22522;-69
2022/01/31 15:42:29;;;;;;;23.60;7.80;;;;;;;1.87;64.45;97339.92;218891;1277;22550;-70
2022/01/31 15:47:43;;;;;;;25.40;7.80;;;;;;;1.73;64.56;97340.67;218878;1275;22549;-70
2022/01/31 15:53:02;;;;;;;25.80;9.30;;;;;;;1.60;64.89;97345.85;219003;1274;22557;-69
2022/01/31 15:58:24;;;;;;;;;;;;;;;;;;;;;
2022/01/31 16:04:29;;;;;;;22.10;7.60;;;;;;;1.42;65.60;97359.79;219155;1274;26380;-70
2022/01/31 16:09:53;;;;;;;27.80;8.20;;;;;;;1.39;65.85;97373.40;219425;1274;22569;-69
2022/01/31 16:15:22;;;;;;;;;;;;;;;;;;;;;
2022/01/31 16:26:01;;;;;;;18.00;7.60;;;;;;;1.47;65.96;97371.24;219920;1274;24161;-70
2022/01/31 16:31:03;;;;;;;27.40;8.60;;;;;;;1.45;65.96;97372.92;219024;1274;22548;-69
2022/01/31 16:36:09;;;;;;;23.40;8.20;;;;;;;1.39;66.13;97375.67;218693;1274;25518;-69
2022/01/31 16:41:20;;;;;;;25.40;8.00;;;;;;;1.32;66.34;97374.61;218949;1275;22589;-70
2022/01/31 16:46:24;;;;;;;24.70;8.30;;;;;;;1.26;66.38;97371.86;218979;1275;23066;-70
2022/01/31 16:51:36;;;;;;;31.30;9.20;;;;;;;1.20;66.64;97374.55;219093;1275;25492;-70
2022/01/31 16:56:41;;;;;;;26.20;9.30;;;;;;;1.13;66.55;97370.73;219405;1275;23701;-69
2022/01/31 17:01:46;;;;;;;25.50;8.40;;;;;;;1.03;66.86;97374.88;218899;1277;22622;-68
2022/01/31 17:06:49;;;;;;;26.00;8.40;;;;;;;0.93;66.99;97374.38;219025;1274;24321;-71
2022/01/31 17:11:59;;;;;;;28.50;9.00;;;;;;;0.84;67.25;97386.73;218898;1274;22540;-69
2022/01/31 17:17:01;;;;;;;30.00;11.10;;;;;;;0.78;67.41;97386.77;219524;1274;22598;-69
2022/01/31 17:22:07;;;;;;;37.50;12.60;;;;;;;0.72;67.74;97392.49;219021;1274;22551;-69
2022/01/31 17:27:14;;;;;;;41.30;13.00;;;;;;;0.67;67.53;97400.65;219058;1277;22560;-69
2022/01/31 17:32:20;;;;;;;37.30;13.70;;;;;;;0.66;68.13;97402.80;219172;1274;22638;-69
2022/01/31 17:37:25;;;;;;;40.70;17.20;;;;;;;0.67;68.38;97400.49;219143;1274;24968;-70
2022/01/31 17:42:30;;;;;;;42.90;16.30;;;;;;;0.67;68.32;97404.23;219195;1274;23950;-69
2022/01/31 17:47:45;;;;;;;47.30;18.30;;;;;;;0.64;68.25;97401.52;219170;1274;24459;-70
2022/01/31 17:52:47;;;;;;;39.00;17.30;;;;;;;0.59;68.64;97404.73;218927;1274;25841;-70
2022/01/31 17:57:50;;;;;;;39.70;17.20;;;;;;;0.53;68.83;97411.70;219036;1274;26453;-69
2022/01/31 18:03:05;;;;;;;;;;;;;;;;;;;;;
2022/01/31 18:08:10;;;;;;;39.80;16.00;;;;;;;0.41;69.11;97421.17;219483;1274;25398;-69
2022/01/31 18:13:13;;;;;;;37.50;16.10;;;;;;;0.34;69.47;97423.78;219036;1274;23752;-70
2022/01/31 18:18:30;;;;;;;40.20;15.90;;;;;;;0.26;69.91;97427.10;219268;1274;25416;-69
2022/01/31 18:23:40;;;;;;;41.40;17.60;;;;;;;0.21;70.01;97441.08;219262;1274;24275;-70
2022/01/31 18:29:06;;;;;;;43.50;17.80;;;;;;;0.18;70.19;97449.02;219137;1274;24382;-69
2022/01/31 18:34:08;;;;;;;45.30;19.10;;;;;;;0.17;70.51;97450.90;219183;1275;23853;-69
2022/01/31 18:39:11;;;;;;;53.60;21.80;;;;;;;0.19;70.72;97440.32;219096;1274;23072;-70
2022/01/31 18:44:13;;;;;;;52.40;22.30;;;;;;;0.19;70.93;97445.38;219147;1275;22582;-69
2022/01/31 18:49:19;;;;;;;50.10;20.40;;;;;;;0.13;70.82;97445.20;219181;1274;22989;-69
2022/01/31 18:54:38;;;;;;;49.40;20.50;;;;;;;0.07;71.13;97449.58;219312;1274;23826;-70
2022/01/31 18:59:48;;;;;;;63.60;24.50;;;;;;;0.05;71.55;97454.93;218998;1275;25522;-69
2022/01/31 19:04:55;;;;;;;58.10;23.70;;;;;;;0.10;71.27;97462.23;219128;1275;22710;-70
2022/01/31 19:10:13;;;;;;;;;;;;;;;;;;;;;
2022/01/31 19:20:21;;;;;;;58.50;21.60;;;;;;;0.08;71.68;97465.95;219074;1274;22671;-69
2022/01/31 19:25:32;;;;;;;62.90;23.90;;;;;;;0.01;71.73;97471.13;219094;1275;22753;-70
2022/01/31 19:31:12;;;;;;;64.50;25.00;;;;;;;-0.10;71.93;97473.08;218983;1275;25416;-70
2022/01/31 19:36:23;;;;;;;56.20;22.20;;;;;;;-0.19;72.10;97483.59;219040;1274;25445;-69
2022/01/31 19:47:33;;;;;;;41.40;16.40;;;;;;;-0.32;72.74;97484.63;219007;1274;24288;-70
2022/01/31 19:52:41;;;;;;;34.10;14.20;;;;;;;-0.39;72.98;97487.51;219124;1275;24158;-69
2022/01/31 19:58:07;;;;;;;31.00;12.90;;;;;;;-0.42;73.57;97493.21;219018;1275;22721;-69
2022/01/31 20:03:10;;;;;;;30.30;12.80;;;;;;;-0.48;73.98;97500.73;219014;1277;22576;-70
2022/01/31 20:09:00;;;;;;;37.00;15.20;;;;;;;-0.55;74.04;97509.71;219179;1274;24247;-69
2022/01/31 20:14:26;;;;;;;39.50;17.60;;;;;;;-0.60;74.42;97512.29;219383;1274;22580;-69
2022/01/31 20:19:42;;;;;;;39.60;18.70;;;;;;;-0.63;74.54;97515.52;214845;1274;6535153;-69
2022/01/31 20:24:50;;;;;;;53.60;21.90;;;;;;;-0.66;74.84;97520.48;219316;1274;22570;-69
2022/01/31 20:29:54;;;;;;;51.70;20.30;;;;;;;-0.68;75.07;97522.20;219200;1275;24820;-69
2022/01/31 20:35:02;;;;;;;45.00;19.00;;;;;;;-0.72;75.28;97525.37;219505;1275;22636;-70
2022/01/31 20:40:44;;;;;;;49.20;20.20;;;;;;;-0.75;75.57;97524.64;219273;1274;24359;-69
2022/01/31 20:45:49;;;;;;;47.70;18.60;;;;;;;-0.74;75.87;97527.34;219174;1274;22570;-70
2022/01/31 20:50:55;;;;;;;44.50;18.00;;;;;;;-0.72;75.89;97531.20;219018;1274;22572;-69
2022/01/31 20:56:00;;;;;;;33.70;15.60;;;;;;;-0.71;76.00;97538.05;219085;1274;22597;-69
2022/01/31 21:01:28;;;;;;;43.50;16.40;;;;;;;-0.70;76.28;97540.85;219246;1275;22781;-69
2022/01/31 21:06:59;;;;;;;42.80;17.40;;;;;;;-0.70;76.36;97553.00;219030;1274;25468;-70
2022/01/31 21:12:46;;;;;;;47.30;19.40;;;;;;;-0.70;76.36;97560.89;220000;1274;25851;-68
2022/01/31 21:18:04;;;;;;;48.90;19.50;;;;;;;-0.69;76.55;97565.69;220415;1274;25996;-69
2022/01/31 21:23:26;;;;;;;59.90;27.50;;;;;;;-0.70;77.00;97568.94;219299;1274;25337;-69
2022/01/31 21:29:11;;;;;;;42.90;19.60;;;;;;;-0.63;77.26;97583.16;219146;1274;22798;-69
2022/01/31 21:35:29;;;;;;;;;;;;;;;;;;;;;
2022/01/31 21:41:21;;;;;;;41.80;18.20;;;;;;;-0.61;77.28;97600.51;219512;1274;22547;-69
2022/01/31 21:46:26;;;;;;;46.10;18.00;;;;;;;-0.56;77.41;97603.73;219253;1277;24087;-70
2022/01/31 21:51:48;;;;;;;50.70;19.20;;;;;;;-0.51;77.40;97610.68;219451;1274;22554;-69
2022/01/31 21:56:59;;;;;;;48.60;19.10;;;;;;;-0.44;77.73;97611.13;219090;1274;22675;-69
2022/01/31 22:02:11;;;;;;;60.90;24.10;;;;;;;-0.39;78.13;97616.62;219086;1274;24149;-68
2022/01/31 22:07:36;;;;;;;56.60;22.90;;;;;;;-0.31;78.02;97624.06;219217;1274;22590;-69
2022/01/31 22:12:41;;;;;;;50.60;21.30;;;;;;;-0.25;78.08;97631.93;219273;1274;22629;-69
2022/01/31 22:18:14;;;;;;;56.90;21.80;;;;;;;-0.20;78.04;97636.20;219097;1274;22630;-70
2022/01/31 22:23:28;;;;;;;53.70;21.50;;;;;;;-0.14;78.01;97639.90;219098;1274;24304;-69
2022/01/31 22:28:50;;;;;;;57.20;20.90;;;;;;;-0.07;77.99;97642.86;219202;1274;22592;-71
2022/01/31 22:34:33;;;;;;;56.20;20.10;;;;;;;0.00;77.84;97654.32;219058;1274;26393;-68
2022/01/31 22:39:56;;;;;;;47.60;19.00;;;;;;;0.06;77.93;97659.29;218877;1274;22570;-67
2022/01/31 22:50:43;;;;;;;42.30;17.70;;;;;;;0.14;77.59;97671.59;219010;1274;25286;-68
2022/01/31 22:55:49;;;;;;;43.60;18.50;;;;;;;0.16;77.44;97679.14;219127;1274;22572;-69
2022/01/31 23:01:15;;;;;;;51.60;19.80;;;;;;;0.16;77.66;97680.92;219058;1274;25513;-67
2022/01/31 23:06:23;;;;;;;;;;;;;;;0.16;77.61;97681.55;219092;1274;25249;-69
2022/01/31 23:11:45;;;;;;;46.00;17.40;;;;;;;0.16;77.64;97687.67;219095;1274;25465;-68
2022/01/31 23:16:58;;;;;;;48.10;19.10;;;;;;;0.18;77.53;97701.17;218990;1274;25606;-69
2022/01/31 23:42:17;;;;;;;45.70;18.10;;;;;;;0.21;77.58;97709.16;218874;1277;25556;-69
